Terminal Aerodrome Forecast
Issued by NWS

Home | Current Version | Previous Version | Text Only | Print | Product List | Glossary On
Versions: 1 2 3 4 5 6 7 8 9 10 11 12 13 14 15 16 17 18
024
FTUS43 KOAX 270529 CCA
TAFCDR
TAF COR
KCDR 270529Z 2705/2806 17007KT P6SM VCTS SCT025 BKN040CB
      TEMPO 2705/2707 VRB20G30KT 3SM TSRA BKN025CB
     FM270700 19007KT P6SM SCT040
     FM271200 24010KT P6SM SCT250=

USA.gov is the U.S. government's official web portal to all federal, state and local government web resources and services.